Time;durP1;ratioP1;P1;durP2;ratioP2;P2;SDS_P1;SDS_P2;PMS_P1;PMS_P2;Temp;Humidity;BMP_temperature;BMP_pressure;BME280_temperature;BME280_humidity;BME280_pressure;Samples;Min_cycle;Max_cycle;Signal;HPM_P1;HPM_P2
2024/03/16 00:03:36;;;;;;;1999.90;999.90;;;;;;;10.83;100.00;100871.22;10481152;28;20044;-72
2024/03/16 00:08:38;;;;;;;1999.90;999.90;;;;;;;10.72;100.00;100871.81;10481155;28;20143;-72
2024/03/16 00:13:42;;;;;;;1999.90;999.90;;;;;;;10.91;100.00;100871.63;10498436;28;20087;-72
2024/03/16 00:18:44;;;;;;;1999.90;999.90;;;;;;;10.65;100.00;100873.09;10498175;28;20123;-72
2024/03/16 00:23:47;;;;;;;1999.90;999.90;;;;;;;10.69;100.00;100876.38;10480029;28;20048;-72
2024/03/16 00:28:50;;;;;;;1999.90;999.90;;;;;;;10.79;100.00;100874.94;10497966;28;20040;-72
2024/03/16 00:33:53;;;;;;;1999.90;999.90;;;;;;;10.76;100.00;100878.59;10480100;28;20048;-72
2024/03/16 00:38:56;;;;;;;1999.90;999.90;;;;;;;10.83;100.00;100886.09;10479788;28;20036;-72
2024/03/16 00:43:59;;;;;;;1999.90;999.90;;;;;;;10.82;100.00;100887.84;10497552;28;20127;-72
2024/03/16 00:49:02;;;;;;;1999.90;999.90;;;;;;;10.90;100.00;100892.66;10479421;28;20076;-72
2024/03/16 00:54:04;;;;;;;1999.90;999.90;;;;;;;10.55;100.00;100887.66;10497100;28;20049;-72
2024/03/16 00:59:07;;;;;;;1999.90;999.90;;;;;;;10.61;100.00;100897.78;10462048;28;20044;-71
2024/03/16 01:04:10;;;;;;;1999.90;999.90;;;;;;;10.59;100.00;100899.63;10479466;28;20131;-71
2024/03/16 01:09:16;;;;;;;1999.90;999.90;;;;;;;10.62;100.00;100915.16;10462363;28;20551;-71
2024/03/16 01:14:18;;;;;;;1999.90;999.90;;;;;;;10.20;100.00;100913.94;10479300;28;20106;-71
2024/03/16 01:19:21;;;;;;;1999.90;999.90;;;;;;;10.30;100.00;100912.50;10496979;28;20059;-71
2024/03/16 01:24:23;;;;;;;1999.90;999.90;;;;;;;10.31;100.00;100916.81;10479168;28;20084;-71
2024/03/16 01:29:26;;;;;;;1999.90;999.90;;;;;;;10.33;100.00;100925.47;10479091;28;20123;-71
2024/03/16 01:34:28;;;;;;;1999.90;999.90;;;;;;;10.32;100.00;100931.66;10478694;28;20044;-71
2024/03/16 01:39:30;;;;;;;1999.90;999.90;;;;;;;10.30;100.00;100937.84;10478762;28;20090;-71
2024/03/16 01:44:33;;;;;;;1999.90;999.90;;;;;;;10.44;100.00;100932.75;10478400;28;20082;-71
2024/03/16 01:49:35;;;;;;;1999.90;999.90;;;;;;;10.43;100.00;100933.66;10461954;28;20072;-71
2024/03/16 01:54:38;;;;;;;1999.90;999.90;;;;;;;10.41;100.00;100938.97;10478492;28;20056;-71
2024/03/16 01:59:41;;;;;;;1999.90;999.90;;;;;;;10.36;100.00;100937.56;10478085;28;20048;-71
2024/03/16 02:04:43;;;;;;;1999.90;999.90;;;;;;;10.29;100.00;100946.59;10461526;28;20458;-71
2024/03/16 02:09:46;;;;;;;1999.90;999.90;;;;;;;10.19;100.00;100962.81;10481458;28;20057;-71
2024/03/16 02:14:48;;;;;;;1999.90;999.90;;;;;;;10.17;100.00;100959.44;10485274;28;20509;-71
2024/03/16 02:19:50;;;;;;;1999.90;999.90;;;;;;;10.36;100.00;100963.72;10503361;28;20076;-71
2024/03/16 02:24:53;;;;;;;1999.90;999.90;;;;;;;10.30;100.00;100969.25;10468613;28;20076;-71
2024/03/16 02:29:55;;;;;;;1999.90;999.90;;;;;;;10.42;100.00;100958.13;10501209;28;20040;-71
2024/03/16 02:34:58;;;;;;;1999.90;999.90;;;;;;;10.23;100.00;100964.34;10503121;28;20083;-71
2024/03/16 02:40:03;;;;;;;1999.90;999.90;;;;;;;10.29;100.00;100973.66;10538631;22;20056;-75
2024/03/16 02:45:06;;;;;;;1999.90;999.90;;;;;;;10.28;100.00;100977.19;10509679;28;20052;-74
2024/03/16 02:50:10;;;;;;;1999.90;999.90;;;;;;;10.13;100.00;100983.22;10509247;28;20079;-74
2024/03/16 02:55:13;;;;;;;1999.90;999.90;;;;;;;10.17;100.00;100995.22;10543654;28;20052;-74
2024/03/16 03:00:16;;;;;;;1999.90;999.90;;;;;;;10.09;100.00;101010.50;10525607;28;20052;-74
2024/03/16 03:05:20;;;;;;;1999.90;999.90;;;;;;;10.14;100.00;101021.56;10525225;28;20484;-73
2024/03/16 03:10:23;;;;;;;1999.90;999.90;;;;;;;10.14;100.00;101017.16;10525243;28;20486;-73
2024/03/16 03:15:26;;;;;;;1999.90;999.90;;;;;;;10.15;100.00;101044.16;10524971;28;20044;-73
2024/03/16 03:20:29;;;;;;;1999.90;999.90;;;;;;;9.85;100.00;101061.34;10523984;28;20055;-73
2024/03/16 03:25:31;;;;;;;1999.90;999.90;;;;;;;9.72;100.00;101052.44;10524709;28;20086;-74
2024/03/16 03:30:36;;;;;;;1999.90;999.90;;;;;;;9.77;100.00;101057.44;10524388;28;20040;-74
2024/03/16 03:35:39;;;;;;;1999.90;999.90;;;;;;;9.62;100.00;101075.56;10541790;28;20083;-74
2024/03/16 03:40:41;;;;;;;1999.90;999.90;;;;;;;9.55;100.00;101082.00;10506666;28;20492;-74
2024/03/16 03:50:46;;;;;;;1999.90;999.90;;;;;;;9.38;100.00;101097.63;10523797;28;20086;-73
2024/03/16 03:55:49;;;;;;;1999.90;999.90;;;;;;;9.39;100.00;101100.19;10523294;28;20087;-73
2024/03/16 04:00:52;;;;;;;1999.90;999.90;;;;;;;9.46;100.00;101113.81;10506525;28;20048;-74
2024/03/16 04:05:55;;;;;;;1999.90;999.90;;;;;;;9.40;100.00;101116.72;10523106;28;20048;-73
2024/03/16 04:10:57;;;;;;;1999.90;999.90;;;;;;;9.19;100.00;101126.41;10505888;28;20040;-74
2024/03/16 04:15:59;;;;;;;1999.90;999.90;;;;;;;9.16;100.00;101142.22;10506322;28;20079;-73
2024/03/16 04:21:02;;;;;;;1999.90;999.90;;;;;;;8.96;100.00;101157.06;10540148;28;20477;-73
2024/03/16 04:26:04;;;;;;;1999.90;999.90;;;;;;;9.03;100.00;101161.06;10505211;28;20040;-73
2024/03/16 04:31:07;;;;;;;1999.90;999.90;;;;;;;8.84;100.00;101176.72;10521109;28;20411;-74
2024/03/16 04:36:09;;;;;;;1999.90;999.90;;;;;;;8.62;100.00;101181.16;10521825;28;20131;-74
2024/03/16 04:41:13;;;;;;;1999.90;999.90;;;;;;;8.82;100.00;101191.59;10539224;28;20415;-73
2024/03/16 04:46:15;;;;;;;1999.90;999.90;;;;;;;8.72;100.00;101211.16;10521434;28;20109;-74
2024/03/16 04:51:18;;;;;;;1999.90;999.90;;;;;;;8.76;100.00;101231.03;10521240;28;20492;-73
2024/03/16 04:56:20;;;;;;;1999.90;999.90;;;;;;;8.60;100.00;101237.81;10521107;28;20179;-73
2024/03/16 05:01:23;;;;;;;1999.90;999.90;;;;;;;8.69;100.00;101248.72;10520930;28;20076;-73
2024/03/16 05:06:25;;;;;;;1999.90;999.90;;;;;;;8.66;100.00;101261.91;10504248;28;20051;-73
2024/03/16 05:11:28;;;;;;;1999.90;999.90;;;;;;;8.53;100.00;101265.94;10539072;28;20052;-73
2024/03/16 05:16:30;;;;;;;1999.90;999.90;;;;;;;8.56;100.00;101278.84;10520870;28;20044;-73
2024/03/16 05:21:34;;;;;;;1999.90;999.90;;;;;;;8.80;100.00;101289.19;10520425;28;20062;-75
2024/03/16 05:26:37;;;;;;;1999.90;999.90;;;;;;;8.79;100.00;101285.69;10520419;28;20098;-73
2024/03/16 05:31:41;;;;;;;1999.90;999.90;;;;;;;8.62;100.00;101296.00;10520555;28;20048;-74
2024/03/16 05:36:44;;;;;;;1999.90;999.90;;;;;;;8.41;100.00;101311.59;10520461;28;20134;-73
2024/03/16 05:41:46;;;;;;;1999.90;999.90;;;;;;;8.43;100.00;101329.84;10520384;28;20497;-74
2024/03/16 05:46:49;;;;;;;1999.90;999.90;;;;;;;8.40;100.00;101332.53;10527746;28;20054;-73
2024/03/16 05:51:51;;;;;;;1999.90;999.90;;;;;;;8.37;100.00;101341.31;10528857;28;20067;-73
2024/03/16 05:56:53;;;;;;;1999.90;999.90;;;;;;;8.60;100.00;101347.44;10545966;28;20113;-73
2024/03/16 06:01:56;;;;;;;1999.90;999.90;;;;;;;8.65;100.00;101358.53;10527492;28;20135;-73
2024/03/16 06:06:58;;;;;;;1999.90;999.90;;;;;;;8.39;100.00;101368.22;10511184;28;20386;-73
2024/03/16 06:12:01;;;;;;;1999.90;999.90;;;;;;;8.46;100.00;101387.97;10527303;28;20093;-73
2024/03/16 06:17:03;;;;;;;1999.90;999.90;;;;;;;8.27;100.00;101400.88;10527475;28;20052;-73
2024/03/16 06:22:07;;;;;;;1999.90;999.90;;;;;;;8.22;100.00;101420.19;10526982;28;20075;-73
2024/03/16 06:27:14;;;;;;;1999.90;999.90;;;;;;;8.28;100.00;101439.06;10527581;28;20052;-73
2024/03/16 06:32:20;;;;;;;1999.90;999.90;;;;;;;8.43;100.00;101447.28;10527682;28;20048;-72
2024/03/16 06:37:22;;;;;;;1999.90;999.90;;;;;;;8.39;100.00;101464.78;10526436;28;20060;-73
2024/03/16 06:42:25;;;;;;;1999.90;999.90;;;;;;;8.36;100.00;101476.16;10526553;28;20385;-73
2024/03/16 06:47:27;;;;;;;1999.90;999.90;;;;;;;8.13;100.00;101503.09;10525989;28;20403;-73
2024/03/16 06:52:30;;;;;;;1999.90;999.90;;;;;;;7.87;100.00;101505.75;10509823;28;20044;-73
2024/03/16 06:57:32;;;;;;;1999.90;999.90;;;;;;;7.80;100.00;101521.63;10524470;28;20072;-73
2024/03/16 07:02:35;;;;;;;1999.90;999.90;;;;;;;8.15;100.00;101526.50;10525456;28;20044;-73
2024/03/16 07:07:37;;;;;;;1999.90;999.90;;;;;;;8.12;100.00;101543.13;10525122;28;20390;-73
2024/03/16 07:12:39;;;;;;;1999.90;999.90;;;;;;;8.45;100.00;101552.44;10524881;28;20530;-74
2024/03/16 07:17:43;;;;;;;1999.90;999.90;;;;;;;8.06;100.00;101563.38;10524878;28;20054;-74
2024/03/16 07:22:45;;;;;;;1999.90;999.90;;;;;;;8.54;100.00;101584.28;10508159;28;20059;-77
2024/03/16 07:27:48;;;;;;;1999.90;999.90;;;;;;;8.69;100.00;101605.50;10542524;28;20127;-72
2024/03/16 07:32:50;;;;;;;1999.90;999.90;;;;;;;8.13;100.00;101610.03;10542260;28;20059;-72
2024/03/16 07:37:53;;;;;;;1999.90;999.90;;;;;;;8.17;100.00;101626.44;10523831;28;20506;-72
2024/03/16 07:42:55;;;;;;;1999.90;999.90;;;;;;;8.42;100.00;101633.41;10523700;28;20074;-72
2024/03/16 07:47:58;;;;;;;1999.90;999.90;;;;;;;8.44;100.00;101644.66;10523385;28;20570;-72
2024/03/16 07:53:01;;;;;;;1999.90;999.90;;;;;;;8.32;100.00;101652.00;10523601;28;20055;-72
2024/03/16 07:58:03;;;;;;;1999.90;999.90;;;;;;;8.33;100.00;101650.25;10541021;28;20077;-72
2024/03/16 08:03:06;;;;;;;1999.90;999.90;;;;;;;8.66;100.00;101661.31;10522700;28;20090;-72
2024/03/16 08:08:08;;;;;;;1999.90;999.90;;;;;;;8.96;100.00;101670.69;10522527;28;20511;-72
2024/03/16 08:13:11;;;;;;;1999.90;999.90;;;;;;;8.91;100.00;101682.16;10505856;28;20135;-72
2024/03/16 08:18:14;;;;;;;1999.90;999.90;;;;;;;9.05;100.00;101686.88;10540422;28;20109;-72
2024/03/16 08:23:18;;;;;;;1999.90;999.90;;;;;;;9.06;100.00;101706.88;10522349;28;20083;-72
2024/03/16 08:28:21;;;;;;;1999.90;999.90;;;;;;;8.91;100.00;101723.94;10522555;28;20113;-73
2024/03/16 08:33:24;;;;;;;1999.90;999.90;;;;;;;8.54;100.00;101745.28;10505076;28;20113;-73
2024/03/16 08:38:26;;;;;;;1999.90;999.90;;;;;;;8.48;100.00;101754.13;10521680;28;20074;-73
2024/03/16 08:43:29;;;;;;;1999.90;999.90;;;;;;;8.40;100.00;101755.28;10521367;28;20467;-72
2024/03/16 08:48:32;;;;;;;1999.90;999.90;;;;;;;8.48;100.00;101758.50;10521299;28;20106;-73
2024/03/16 08:53:34;;;;;;;1999.90;999.90;;;;;;;8.90;100.00;101758.78;10521230;28;20386;-73
2024/03/16 08:58:37;;;;;;;1999.90;999.90;;;;;;;9.32;100.00;101761.69;10520865;28;20044;-73
2024/03/16 09:03:39;;;;;;;1999.90;999.90;;;;;;;9.45;98.93;101768.19;10520881;28;20052;-73
2024/03/16 09:08:42;;;;;;;1999.90;999.90;;;;;;;9.96;97.01;101768.84;10520689;28;20056;-73
2024/03/16 09:13:46;;;;;;;1999.90;999.90;;;;;;;11.14;87.24;101768.34;10520959;28;20071;-73
2024/03/16 09:18:48;;;;;;;1999.90;999.90;;;;;;;11.10;85.20;101766.78;10520373;28;20052;-74
2024/03/16 09:23:51;;;;;;;1999.90;999.90;;;;;;;11.15;86.03;101762.19;10520545;28;20071;-73
2024/03/16 09:28:53;;;;;;;1999.90;999.90;;;;;;;10.64;88.68;101800.19;10520811;28;20048;-73
2024/03/16 09:33:56;;;;;;;1999.90;999.90;;;;;;;9.99;88.45;101806.22;10503671;28;20051;-74
2024/03/16 09:38:58;;;;;;;1999.90;999.90;;;;;;;9.56;90.96;101814.84;10503626;28;20052;-73
2024/03/16 09:44:01;;;;;;;1999.90;999.90;;;;;;;9.65;91.09;101825.81;10520074;28;20062;-74
2024/03/16 09:49:03;;;;;;;1999.90;999.90;;;;;;;9.54;92.09;101832.34;10503148;28;20070;-73
2024/03/16 09:54:08;;;;;;;1999.90;999.90;;;;;;;9.57;92.55;101838.31;10486509;28;20048;-73
2024/03/16 09:59:20;;;;;;;1999.90;999.90;;;;;;;9.52;91.11;101850.69;10487208;28;20044;-74
2024/03/16 10:04:22;;;;;;;1999.90;999.90;;;;;;;9.83;89.74;101858.28;10503274;28;20496;-74
2024/03/16 10:09:25;;;;;;;1999.90;999.90;;;;;;;10.02;89.95;101868.06;10519496;28;20412;-74
2024/03/16 10:14:26;;;;;;;1999.90;999.90;;;;;;;9.67;90.20;101878.91;10486936;28;20052;-73
2024/03/16 10:19:29;;;;;;;1999.90;999.90;;;;;;;10.30;89.47;101901.00;10486643;28;20051;-73
2024/03/16 10:24:31;;;;;;;1999.90;999.90;;;;;;;10.14;87.88;101898.97;10502959;28;20091;-74
2024/03/16 10:29:33;;;;;;;1999.90;999.90;;;;;;;10.62;85.48;101909.38;10503346;28;20059;-74
2024/03/16 10:34:35;;;;;;;1999.90;999.90;;;;;;;11.07;83.00;101929.41;10509679;28;20059;-74
2024/03/16 10:39:36;;;;;;;1999.90;999.90;;;;;;;10.62;83.25;101943.44;10493408;28;20094;-73
2024/03/16 10:44:38;;;;;;;1999.90;999.90;;;;;;;10.17;81.39;101932.88;10509921;28;20044;-74
2024/03/16 10:49:40;;;;;;;1999.90;999.90;;;;;;;10.16;82.01;101959.09;10509744;28;20062;-74
2024/03/16 10:54:42;;;;;;;1999.90;999.90;;;;;;;9.92;78.97;101958.22;10493417;28;20067;-74
2024/03/16 10:59:43;;;;;;;1999.90;999.90;;;;;;;11.06;81.16;101960.00;10509046;28;20500;-75
2024/03/16 11:04:51;;;;;;;1999.90;999.90;;;;;;;11.01;77.92;101963.72;10509093;28;20055;-74
2024/03/16 11:09:56;;;;;;;1999.90;999.90;;;;;;;11.12;75.31;101977.25;10524889;28;20472;-74
2024/03/16 11:15:32;;;;;;;1999.90;999.90;;;;;;;10.24;74.63;101985.84;10509329;28;20056;-74
2024/03/16 11:20:36;;;;;;;1999.90;999.90;;;;;;;10.92;76.99;101984.13;10496060;28;20447;-74
2024/03/16 11:25:38;;;;;;;1999.90;999.90;;;;;;;11.71;74.36;101989.59;10508575;28;20121;-74
2024/03/16 11:30:40;;;;;;;1999.90;999.90;;;;;;;11.30;74.83;102000.06;10524267;28;20467;-70
2024/03/16 11:35:42;;;;;;;1999.90;999.90;;;;;;;10.95;75.33;101994.50;10507332;28;20508;-75
2024/03/16 11:40:48;;;;;;;1999.90;999.90;;;;;;;10.44;74.36;101990.38;10506887;28;20105;-78
2024/03/16 11:45:49;;;;;;;1999.90;999.90;;;;;;;10.50;76.69;101990.13;10507273;28;20439;-71
2024/03/16 11:50:51;;;;;;;1999.90;999.90;;;;;;;10.35;77.02;102004.63;10523347;28;20512;-75
2024/03/16 11:55:52;;;;;;;1999.90;999.90;;;;;;;10.15;78.62;102017.56;10506266;28;20403;-75
2024/03/16 12:00:55;;;;;;;1999.90;999.90;;;;;;;9.69;79.96;102024.44;10506161;28;20431;-73
2024/03/16 12:05:56;;;;;;;1999.90;999.90;;;;;;;10.29;77.00;102028.41;10505952;28;20056;-73
2024/03/16 12:10:57;;;;;;;1999.90;999.90;;;;;;;10.14;76.86;102035.06;10506386;28;20477;-71
2024/03/16 12:15:59;;;;;;;1999.90;999.90;;;;;;;10.50;78.63;102028.56;10505692;28;20488;-74
2024/03/16 12:21:03;;;;;;;1999.90;999.90;;;;;;;10.84;78.67;102028.13;10488649;28;20048;-74
2024/03/16 12:26:09;;;;;;;1999.90;999.90;;;;;;;10.68;77.38;102029.63;10488911;28;20056;-74
2024/03/16 12:31:11;;;;;;;1999.90;999.90;;;;;;;10.80;76.88;102039.63;10489579;28;20078;-74
2024/03/16 12:36:12;;;;;;;1999.90;999.90;;;;;;;13.37;75.58;102035.47;10488492;28;20496;-74
2024/03/16 12:41:14;;;;;;;1999.90;999.90;;;;;;;11.63;73.52;102040.69;10440975;28;20045;-74
2024/03/16 12:46:15;;;;;;;1999.90;999.90;;;;;;;11.19;74.79;102044.22;10438461;28;20053;-74
2024/03/16 12:51:19;;;;;;;1999.90;999.90;;;;;;;11.34;73.62;102050.63;10438659;28;20144;-73
2024/03/16 12:56:21;;;;;;;1999.90;999.90;;;;;;;11.14;73.55;102052.25;10438298;28;20497;-74
2024/03/16 13:01:25;;;;;;;1999.90;999.90;;;;;;;10.62;73.22;102054.28;10454218;28;20049;-74
2024/03/16 13:06:26;;;;;;;1999.90;999.90;;;;;;;11.07;73.77;102055.19;10421948;28;20417;-74
2024/03/16 13:11:28;;;;;;;1999.90;999.90;;;;;;;11.61;74.50;102064.34;10438159;28;20059;-74
2024/03/16 13:16:29;;;;;;;1999.90;999.90;;;;;;;12.54;70.13;102063.00;10438348;28;20064;-75
2024/03/16 13:21:32;;;;;;;1999.90;999.90;;;;;;;12.57;67.11;102068.13;10437476;28;20045;-75
2024/03/16 13:26:33;;;;;;;1999.90;999.90;;;;;;;12.62;69.95;102072.28;10438278;28;20048;-75
2024/03/16 13:31:35;;;;;;;1999.90;999.90;;;;;;;12.78;66.56;102069.78;10437079;28;20064;-75
2024/03/16 13:36:37;;;;;;;1999.90;999.90;;;;;;;11.96;66.63;102074.34;10438047;28;20049;-75
2024/03/16 13:41:38;;;;;;;1999.90;999.90;;;;;;;12.32;65.65;102071.00;10474321;28;20057;-75
2024/03/16 13:46:40;;;;;;;1999.90;999.90;;;;;;;14.28;67.65;102068.53;10478459;28;20505;-76
2024/03/16 13:51:41;;;;;;;1999.90;999.90;;;;;;;14.53;63.83;102072.50;10479190;28;20118;-76
2024/03/16 13:56:42;;;;;;;1999.90;999.90;;;;;;;13.74;63.27;102073.09;10478768;28;20106;-76
2024/03/16 14:01:44;;;;;;;1999.90;999.90;;;;;;;13.25;65.77;102086.03;10461814;28;20086;-76
2024/03/16 14:06:45;;;;;;;1999.90;999.90;;;;;;;12.76;63.03;102084.78;10483514;28;20053;-76
2024/03/16 14:11:47;;;;;;;1999.90;999.90;;;;;;;12.14;63.87;102098.91;10485684;28;20409;-77
2024/03/16 14:16:49;;;;;;;1999.90;999.90;;;;;;;12.49;66.11;102102.66;10468732;28;20568;-76
2024/03/16 14:21:51;;;;;;;1999.90;999.90;;;;;;;12.73;66.08;102094.56;10485378;28;20041;-76
2024/03/16 14:26:52;;;;;;;1999.90;999.90;;;;;;;12.94;65.07;102092.72;10485780;28;20052;-76
2024/03/16 14:31:54;;;;;;;1999.90;999.90;;;;;;;12.55;64.52;102102.34;10469090;28;20056;-71
2024/03/16 14:36:55;;;;;;;1999.90;999.90;;;;;;;13.75;64.70;102101.09;10502041;28;20063;-71
2024/03/16 14:42:00;;;;;;;1999.90;999.90;;;;;;;12.69;63.66;102103.50;10467603;28;20052;-71
2024/03/16 14:47:01;;;;;;;1999.90;999.90;;;;;;;12.52;63.87;102107.75;10485058;28;20054;-71
2024/03/16 14:52:03;;;;;;;1999.90;999.90;;;;;;;12.79;62.39;102105.66;10474452;22;20056;-76
2024/03/16 14:57:05;;;;;;;1999.90;999.90;;;;;;;12.96;65.25;102107.50;10467650;28;20056;-76
2024/03/16 15:02:08;;;;;;;1999.90;999.90;;;;;;;13.43;62.83;102103.56;10472610;28;20053;-76
2024/03/16 15:07:11;;;;;;;1999.90;999.90;;;;;;;12.65;63.78;102097.53;10426693;28;20071;-76
2024/03/16 15:12:13;;;;;;;1999.90;999.90;;;;;;;14.78;59.37;102100.22;10456718;28;20044;-76
2024/03/16 15:17:14;;;;;;;1999.90;999.90;;;;;;;15.13;60.28;102097.41;10482249;28;20052;-76
2024/03/16 15:22:16;;;;;;;1999.90;999.90;;;;;;;13.94;59.52;102106.31;10466305;28;20048;-75
2024/03/16 15:32:25;;;;;;;1999.90;999.90;;;;;;;18.97;49.60;102092.38;10466632;28;20493;-76
2024/03/16 15:37:26;;;;;;;1999.90;999.90;;;;;;;16.59;54.56;102109.13;10466089;28;20087;-76
2024/03/16 15:42:28;;;;;;;1999.90;999.90;;;;;;;16.83;45.84;102114.69;10465534;28;20052;-76
2024/03/16 15:47:32;;;;;;;1999.90;999.90;;;;;;;19.49;46.84;102104.47;10466233;28;20102;-76
2024/03/16 15:52:34;;;;;;;1999.90;999.90;;;;;;;18.99;43.53;102109.03;10465321;28;20513;-75
2024/03/16 15:57:36;;;;;;;1999.90;999.90;;;;;;;18.43;45.17;102120.03;10482466;28;20052;-77
2024/03/16 16:02:38;;;;;;;1999.90;999.90;;;;;;;21.17;39.89;102113.72;10481194;28;20489;-77
2024/03/16 16:07:39;;;;;;;1999.90;999.90;;;;;;;20.67;40.85;102112.31;10464634;28;20393;-76
2024/03/16 16:12:41;;;;;;;1999.90;999.90;;;;;;;19.19;43.98;102112.88;10464628;28;20562;-76
2024/03/16 16:17:42;;;;;;;1999.90;999.90;;;;;;;17.50;42.69;102124.53;10464002;28;20421;-76
2024/03/16 16:22:43;;;;;;;1999.90;999.90;;;;;;;15.76;48.52;102123.72;10480487;28;20048;-76
2024/03/16 16:27:45;;;;;;;1999.90;999.90;;;;;;;13.72;54.33;102125.81;10463592;28;20056;-76
2024/03/16 16:32:46;;;;;;;1999.90;999.90;;;;;;;12.52;55.91;102136.63;10463686;28;20063;-76
2024/03/16 16:37:48;;;;;;;1999.90;999.90;;;;;;;12.81;57.90;102145.84;10463169;28;20409;-76
2024/03/16 16:42:49;;;;;;;1999.90;999.90;;;;;;;11.84;60.20;102157.88;10463510;28;20417;-76
2024/03/16 16:47:51;;;;;;;1999.90;999.90;;;;;;;11.42;58.86;102145.56;10463799;28;20053;-76
2024/03/16 16:52:53;;;;;;;1999.90;999.90;;;;;;;11.41;61.70;102159.56;10462860;28;20101;-76
2024/03/16 16:57:54;;;;;;;1999.90;999.90;;;;;;;11.07;59.80;102166.13;10446807;28;20067;-76
2024/03/16 17:02:56;;;;;;;1999.90;999.90;;;;;;;10.69;61.24;102171.03;10462498;28;20059;-76
2024/03/16 17:07:58;;;;;;;1999.90;999.90;;;;;;;10.38;64.02;102174.72;10479468;28;20044;-76
2024/03/16 17:13:00;;;;;;;1999.90;999.90;;;;;;;9.83;62.76;102182.63;10462749;28;20051;-76
2024/03/16 17:18:04;;;;;;;1999.90;999.90;;;;;;;10.02;64.10;102192.50;10462830;28;20067;-76
2024/03/16 17:23:06;;;;;;;1999.90;999.90;;;;;;;10.14;64.07;102194.69;10462961;28;20052;-76
2024/03/16 17:28:07;;;;;;;1999.90;999.90;;;;;;;9.78;66.56;102194.97;10462887;28;20059;-76
2024/03/16 17:33:09;;;;;;;1999.90;999.90;;;;;;;9.73;65.25;102219.56;10479208;28;20056;-75
2024/03/16 17:38:10;;;;;;;1999.90;999.90;;;;;;;9.78;65.85;102208.03;10462516;28;20052;-75
2024/03/16 17:43:12;;;;;;;1999.90;999.90;;;;;;;9.62;67.15;102215.53;10487145;28;20048;-75
2024/03/16 17:48:13;;;;;;;1999.90;999.90;;;;;;;9.44;68.06;102221.31;10486767;28;20520;-75
2024/03/16 17:53:15;;;;;;;1999.90;999.90;;;;;;;9.17;67.02;102223.81;10469582;28;20459;-75
2024/03/16 17:58:16;;;;;;;1999.90;999.90;;;;;;;8.96;69.97;102213.97;10470663;28;20048;-75
2024/03/16 18:03:18;;;;;;;1999.90;999.90;;;;;;;8.60;71.90;102217.56;10469163;28;20064;-75
2024/03/16 18:08:19;;;;;;;1999.90;999.90;;;;;;;8.20;73.55;102228.97;10469910;28;20060;-75
2024/03/16 18:13:21;;;;;;;1999.90;999.90;;;;;;;8.03;73.87;102220.72;10469126;28;20406;-75
2024/03/16 18:18:23;;;;;;;1999.90;999.90;;;;;;;7.88;73.42;102232.34;10468994;28;20143;-75
2024/03/16 18:23:26;;;;;;;1999.90;999.90;;;;;;;7.68;75.07;102248.44;10469196;28;20056;-75
2024/03/16 18:28:29;;;;;;;1999.90;999.90;;;;;;;7.42;75.78;102255.09;10469498;28;20052;-76
2024/03/16 18:33:32;;;;;;;1999.90;999.90;;;;;;;7.34;76.59;102249.16;10468014;28;20063;-75
2024/03/16 18:38:33;;;;;;;1999.90;999.90;;;;;;;7.30;77.73;102255.34;10468915;28;20052;-76
2024/03/16 18:43:35;;;;;;;1999.90;999.90;;;;;;;7.02;79.08;102248.91;10468616;28;20048;-75
2024/03/16 18:48:37;;;;;;;1999.90;999.90;;;;;;;6.86;80.34;102245.75;10445959;28;20075;-75
2024/03/16 18:53:38;;;;;;;1999.90;999.90;;;;;;;6.67;80.05;102246.97;10441815;28;20469;-75
2024/03/16 18:58:40;;;;;;;1999.90;999.90;;;;;;;6.61;79.82;102245.34;10442620;28;20386;-75
2024/03/16 19:03:42;;;;;;;1999.90;999.90;;;;;;;6.51;81.07;102251.59;10475964;28;20611;-75
2024/03/16 19:08:43;;;;;;;1999.90;999.90;;;;;;;6.47;81.70;102252.50;10428075;28;20056;-75
2024/03/16 19:13:44;;;;;;;1999.90;999.90;;;;;;;6.29;84.29;102253.69;10442985;28;20053;-76
2024/03/16 19:18:47;;;;;;;1999.90;999.90;;;;;;;6.35;82.91;102252.72;10426085;28;20052;-76
2024/03/16 19:23:49;;;;;;;1999.90;999.90;;;;;;;6.31;82.68;102250.16;10442068;28;20053;-75
2024/03/16 19:28:50;;;;;;;1999.90;999.90;;;;;;;6.05;85.50;102262.72;10442305;28;20060;-75
2024/03/16 19:33:52;;;;;;;1999.90;999.90;;;;;;;5.83;86.93;102264.75;10457595;28;20087;-75
2024/03/16 19:38:55;;;;;;;1999.90;999.90;;;;;;;5.79;87.75;102268.28;10440986;28;20049;-74
2024/03/16 19:43:56;;;;;;;1999.90;999.90;;;;;;;5.67;89.50;102266.72;10441519;28;20053;-75
2024/03/16 19:48:58;;;;;;;1999.90;999.90;;;;;;;5.79;89.44;102263.09;10441212;28;20045;-75
2024/03/16 19:53:59;;;;;;;1999.90;999.90;;;;;;;5.49;90.33;102271.25;10440374;28;20053;-75
2024/03/16 19:59:01;;;;;;;1999.90;999.90;;;;;;;5.40;91.72;102280.03;10423530;28;20044;-75
2024/03/16 20:04:02;;;;;;;1999.90;999.90;;;;;;;5.44;92.08;102282.59;10460275;28;20056;-75
2024/03/16 20:09:04;;;;;;;1999.90;999.90;;;;;;;5.52;90.87;102281.59;10464848;28;20543;-75
2024/03/16 20:14:05;;;;;;;1999.90;999.90;;;;;;;5.32;92.40;102274.06;10464259;28;20460;-75
2024/03/16 20:19:07;;;;;;;1999.90;999.90;;;;;;;5.26;92.63;102274.16;10480699;28;20037;-75
2024/03/16 20:24:09;;;;;;;1999.90;999.90;;;;;;;5.31;93.94;102277.53;10464739;28;20079;-75
2024/03/16 20:29:10;;;;;;;1999.90;999.90;;;;;;;5.16;93.58;102288.06;10463626;28;20477;-75
2024/03/16 20:34:11;;;;;;;1999.90;999.90;;;;;;;5.24;93.45;102273.28;10463770;28;20048;-75
2024/03/16 20:39:13;;;;;;;1999.90;999.90;;;;;;;5.19;94.25;102275.94;10463446;28;20413;-75
2024/03/16 20:44:17;;;;;;;1999.90;999.90;;;;;;;5.19;95.41;102275.94;10463870;28;20055;-74
2024/03/16 20:49:18;;;;;;;1999.90;999.90;;;;;;;5.18;95.43;102275.97;10479692;28;20505;-75
2024/03/16 20:54:20;;;;;;;1999.90;999.90;;;;;;;4.98;95.48;102287.41;10462871;28;20060;-75
2024/03/16 20:59:21;;;;;;;1999.90;999.90;;;;;;;5.09;95.92;102295.06;10479878;28;20045;-75
2024/03/16 21:04:23;;;;;;;1999.90;999.90;;;;;;;5.19;95.76;102290.66;10480148;28;20065;-75
2024/03/16 21:09:24;;;;;;;1999.90;999.90;;;;;;;4.90;96.27;102285.78;10479753;28;20045;-75
2024/03/16 21:14:26;;;;;;;1999.90;999.90;;;;;;;5.24;96.72;102285.41;10461626;28;20494;-76
2024/03/16 21:19:28;;;;;;;1999.90;999.90;;;;;;;4.96;99.02;102289.16;10462987;28;20037;-75
2024/03/16 21:24:29;;;;;;;1999.90;999.90;;;;;;;4.99;97.33;102293.44;10462349;28;20412;-75
2024/03/16 21:29:30;;;;;;;1999.90;999.90;;;;;;;4.93;97.12;102294.38;10479347;28;20056;-75
2024/03/16 21:34:32;;;;;;;1999.90;999.90;;;;;;;4.69;100.00;102292.88;10462498;28;20081;-75
2024/03/16 21:39:34;;;;;;;1999.90;999.90;;;;;;;4.59;100.00;102293.81;10462259;28;20040;-75
2024/03/16 21:44:36;;;;;;;1999.90;999.90;;;;;;;4.68;99.97;102290.31;10462658;28;20056;-75
2024/03/16 21:49:37;;;;;;;1999.90;999.90;;;;;;;4.70;100.00;102293.75;10462255;28;20056;-75
2024/03/16 21:54:40;;;;;;;1999.90;999.90;;;;;;;4.74;100.00;102296.31;10461775;28;20052;-75
2024/03/16 21:59:41;;;;;;;1999.90;999.90;;;;;;;4.65;100.00;102288.59;10445567;28;20040;-75
2024/03/16 22:04:45;;;;;;;1999.90;999.90;;;;;;;4.56;100.00;102294.72;10431870;28;20532;-75